sensor_id;sensor_type;location;lat;lon;timestamp;pressure;altitude;pressure_sealevel;temperature;humidity
9695;BME280;4690;52.422;13.486;2023-02-03T00:04:17;101884.34;;;2.89;86.00
9695;BME280;4690;52.422;13.486;2023-02-03T00:06:43;101872.78;;;2.97;85.58
9695;BME280;4690;52.422;13.486;2023-02-03T00:09:09;101876.03;;;3.00;85.55
9695;BME280;4690;52.422;13.486;2023-02-03T00:11:35;101870.09;;;3.14;85.36
9695;BME280;4690;52.422;13.486;2023-02-03T00:14:01;101866.31;;;3.07;85.46
9695;BME280;4690;52.422;13.486;2023-02-03T00:16:26;101863.44;;;3.09;84.98
9695;BME280;4690;52.422;13.486;2023-02-03T00:18:52;101856.13;;;3.19;85.16
9695;BME280;4690;52.422;13.486;2023-02-03T00:21:18;101852.91;;;3.33;84.93
9695;BME280;4690;52.422;13.486;2023-02-03T00:23:44;101845.19;;;3.39;84.69
9695;BME280;4690;52.422;13.486;2023-02-03T00:26:15;101842.16;;;3.42;84.43
9695;BME280;4690;52.422;13.486;2023-02-03T00:28:42;101829.81;;;3.29;85.40
9695;BME280;4690;52.422;13.486;2023-02-03T00:31:23;101819.97;;;3.10;86.34
9695;BME280;4690;52.422;13.486;2023-02-03T00:33:55;101816.47;;;3.18;86.37
9695;BME280;4690;52.422;13.486;2023-02-03T00:36:22;101805.31;;;3.03;87.23
9695;BME280;4690;52.422;13.486;2023-02-03T00:38:47;101806.03;;;2.78;89.22
9695;BME280;4690;52.422;13.486;2023-02-03T00:41:15;101800.72;;;2.86;89.47
9695;BME280;4690;52.422;13.486;2023-02-03T00:43:41;101793.91;;;2.82;90.44
9695;BME280;4690;52.422;13.486;2023-02-03T00:46:07;101786.88;;;2.61;92.39
9695;BME280;4690;52.422;13.486;2023-02-03T00:48:33;101774.25;;;2.80;92.55
9695;BME280;4690;52.422;13.486;2023-02-03T00:50:58;101759.19;;;2.67;94.06
9695;BME280;4690;52.422;13.486;2023-02-03T00:53:24;101759.28;;;2.85;94.13
9695;BME280;4690;52.422;13.486;2023-02-03T00:55:50;101768.03;;;2.97;94.52
9695;BME280;4690;52.422;13.486;2023-02-03T00:58:16;101766.03;;;2.99;94.38
9695;BME280;4690;52.422;13.486;2023-02-03T01:00:42;101759.78;;;2.99;95.62
9695;BME280;4690;52.422;13.486;2023-02-03T01:03:08;101762.22;;;2.92;96.46
9695;BME280;4690;52.422;13.486;2023-02-03T01:05:35;101767.50;;;2.94;96.75
9695;BME280;4690;52.422;13.486;2023-02-03T01:08:02;101767.38;;;2.85;98.05
9695;BME280;4690;52.422;13.486;2023-02-03T01:10:29;101750.31;;;3.03;97.81
9695;BME280;4690;52.422;13.486;2023-02-03T01:12:55;101745.31;;;3.08;97.83
9695;BME280;4690;52.422;13.486;2023-02-03T01:15:21;101744.81;;;3.12;97.93
9695;BME280;4690;52.422;13.486;2023-02-03T01:17:47;101733.75;;;3.24;97.19
9695;BME280;4690;52.422;13.486;2023-02-03T01:20:12;101741.88;;;3.06;98.05
9695;BME280;4690;52.422;13.486;2023-02-03T01:22:39;101746.47;;;3.23;97.71
9695;BME280;4690;52.422;13.486;2023-02-03T01:25:05;101736.88;;;3.29;97.51
9695;BME280;4690;52.422;13.486;2023-02-03T01:27:32;101731.75;;;3.26;97.99
9695;BME280;4690;52.422;13.486;2023-02-03T01:29:58;101717.38;;;3.25;97.98
9695;BME280;4690;52.422;13.486;2023-02-03T01:32:24;101718.94;;;3.10;99.19
9695;BME280;4690;52.422;13.486;2023-02-03T01:34:50;101706.75;;;3.32;98.73
9695;BME280;4690;52.422;13.486;2023-02-03T01:37:16;101702.34;;;3.31;98.22
9695;BME280;4690;52.422;13.486;2023-02-03T01:39:43;101685.25;;;3.30;98.42
9695;BME280;4690;52.422;13.486;2023-02-03T01:42:14;101674.88;;;3.44;98.86
9695;BME280;4690;52.422;13.486;2023-02-03T01:44:48;101680.31;;;3.08;100.00
9695;BME280;4690;52.422;13.486;2023-02-03T01:47:52;101679.47;;;3.07;100.00
9695;BME280;4690;52.422;13.486;2023-02-03T01:50:35;101668.38;;;3.36;100.00
9695;BME280;4690;52.422;13.486;2023-02-03T01:53:06;101663.66;;;3.39;100.00
9695;BME280;4690;52.422;13.486;2023-02-03T01:55:40;101653.47;;;3.32;100.00
9695;BME280;4690;52.422;13.486;2023-02-03T01:58:16;101645.53;;;3.39;99.54
9695;BME280;4690;52.422;13.486;2023-02-03T02:00:46;101632.53;;;2.99;100.00
9695;BME280;4690;52.422;13.486;2023-02-03T02:03:14;101627.47;;;3.04;100.00
9695;BME280;4690;52.422;13.486;2023-02-03T02:05:57;101632.56;;;3.07;100.00
9695;BME280;4690;52.422;13.486;2023-02-03T02:08:25;101626.31;;;3.24;100.00
9695;BME280;4690;52.422;13.486;2023-02-03T02:10:52;101627.66;;;3.28;100.00
9695;BME280;4690;52.422;13.486;2023-02-03T02:13:19;101624.38;;;3.17;100.00
9695;BME280;4690;52.422;13.486;2023-02-03T02:16:22;101610.31;;;3.13;100.00
9695;BME280;4690;52.422;13.486;2023-02-03T02:36:21;101536.00;;;2.72;100.00
9695;BME280;4690;52.422;13.486;2023-02-03T02:42:23;101513.78;;;2.86;100.00
9695;BME280;4690;52.422;13.486;2023-02-03T02:45:16;101502.97;;;2.86;100.00
9695;BME280;4690;52.422;13.486;2023-02-03T02:47:45;101494.66;;;3.05;100.00
9695;BME280;4690;52.422;13.486;2023-02-03T02:50:25;101492.66;;;2.89;100.00
9695;BME280;4690;52.422;13.486;2023-02-03T02:52:54;101483.00;;;2.87;100.00
9695;BME280;4690;52.422;13.486;2023-02-03T02:55:30;101473.78;;;2.72;100.00
9695;BME280;4690;52.422;13.486;2023-02-03T02:58:04;101475.25;;;2.92;100.00
9695;BME280;4690;52.422;13.486;2023-02-03T03:00:34;101471.97;;;3.06;100.00
9695;BME280;4690;52.422;13.486;2023-02-03T03:03:18;101462.38;;;2.86;100.00
9695;BME280;4690;52.422;13.486;2023-02-03T03:05:54;101450.84;;;2.84;100.00
9695;BME280;4690;52.422;13.486;2023-02-03T03:11:00;101443.94;;;3.16;100.00
9695;BME280;4690;52.422;13.486;2023-02-03T03:13:37;101439.19;;;3.18;100.00
9695;BME280;4690;52.422;13.486;2023-02-03T03:16:07;101437.69;;;2.89;100.00
9695;BME280;4690;52.422;13.486;2023-02-03T03:21:37;101422.50;;;2.96;100.00
9695;BME280;4690;52.422;13.486;2023-02-03T03:24:09;101413.03;;;3.00;100.00
9695;BME280;4690;52.422;13.486;2023-02-03T03:29:26;101388.63;;;3.26;100.00
9695;BME280;4690;52.422;13.486;2023-02-03T03:31:55;101383.22;;;3.26;99.63
9695;BME280;4690;52.422;13.486;2023-02-03T03:34:21;101371.22;;;3.37;98.95
9695;BME280;4690;52.422;13.486;2023-02-03T03:39:58;101365.13;;;3.35;99.18
9695;BME280;4690;52.422;13.486;2023-02-03T03:46:01;101360.00;;;3.24;99.87
9695;BME280;4690;52.422;13.486;2023-02-03T03:48:18;101352.00;;;3.06;100.00
9695;BME280;4690;52.422;13.486;2023-02-03T03:50:55;101356.56;;;3.05;100.00
9695;BME280;4690;52.422;13.486;2023-02-03T03:53:27;101340.38;;;3.22;100.00
9695;BME280;4690;52.422;13.486;2023-02-03T03:55:57;101339.16;;;3.08;100.00
9695;BME280;4690;52.422;13.486;2023-02-03T03:58:29;101336.00;;;3.29;100.00
9695;BME280;4690;52.422;13.486;2023-02-03T04:00:59;101331.66;;;3.52;100.00
9695;BME280;4690;52.422;13.486;2023-02-03T04:03:44;101331.69;;;3.61;99.48
9695;BME280;4690;52.422;13.486;2023-02-03T04:06:12;101319.75;;;3.29;100.00
9695;BME280;4690;52.422;13.486;2023-02-03T04:08:38;101329.59;;;3.38;100.00
9695;BME280;4690;52.422;13.486;2023-02-03T04:11:05;101322.34;;;3.47;100.00
9695;BME280;4690;52.422;13.486;2023-02-03T04:13:31;101311.16;;;3.42;100.00
9695;BME280;4690;52.422;13.486;2023-02-03T04:15:57;101311.09;;;3.25;100.00
9695;BME280;4690;52.422;13.486;2023-02-03T04:18:23;101305.41;;;3.45;100.00
9695;BME280;4690;52.422;13.486;2023-02-03T04:20:49;101300.31;;;3.50;100.00
9695;BME280;4690;52.422;13.486;2023-02-03T04:23:15;101300.34;;;3.66;100.00
9695;BME280;4690;52.422;13.486;2023-02-03T04:25:41;101283.56;;;3.71;100.00
9695;BME280;4690;52.422;13.486;2023-02-03T04:28:06;101274.41;;;3.39;100.00
9695;BME280;4690;52.422;13.486;2023-02-03T04:30:32;101270.88;;;3.55;100.00
9695;BME280;4690;52.422;13.486;2023-02-03T04:32:58;101260.88;;;3.55;100.00
9695;BME280;4690;52.422;13.486;2023-02-03T04:35:25;101251.72;;;3.48;100.00
9695;BME280;4690;52.422;13.486;2023-02-03T04:37:51;101237.00;;;3.51;100.00
9695;BME280;4690;52.422;13.486;2023-02-03T04:40:17;101246.81;;;3.60;100.00
9695;BME280;4690;52.422;13.486;2023-02-03T04:42:42;101241.88;;;3.88;100.00
9695;BME280;4690;52.422;13.486;2023-02-03T04:45:10;101235.81;;;3.94;100.00
9695;BME280;4690;52.422;13.486;2023-02-03T04:47:39;101231.34;;;4.10;100.00
9695;BME280;4690;52.422;13.486;2023-02-03T04:50:05;101222.16;;;4.27;100.00
9695;BME280;4690;52.422;13.486;2023-02-03T04:52:31;101215.88;;;4.35;100.00
9695;BME280;4690;52.422;13.486;2023-02-03T04:54:57;101212.25;;;4.51;100.00
9695;BME280;4690;52.422;13.486;2023-02-03T04:57:23;101207.00;;;4.49;100.00
9695;BME280;4690;52.422;13.486;2023-02-03T04:59:48;101192.75;;;4.47;100.00
9695;BME280;4690;52.422;13.486;2023-02-03T05:02:14;101174.00;;;4.68;100.00
9695;BME280;4690;52.422;13.486;2023-02-03T05:04:40;101191.41;;;4.82;100.00
9695;BME280;4690;52.422;13.486;2023-02-03T05:07:06;101184.84;;;5.00;100.00
9695;BME280;4690;52.422;13.486;2023-02-03T05:09:31;101184.84;;;5.00;100.00
9695;BME280;4690;52.422;13.486;2023-02-03T05:11:57;101187.88;;;5.05;100.00
9695;BME280;4690;52.422;13.486;2023-02-03T05:14:23;101187.47;;;5.16;100.00
9695;BME280;4690;52.422;13.486;2023-02-03T05:16:49;101173.88;;;5.16;100.00
9695;BME280;4690;52.422;13.486;2023-02-03T05:19:14;101187.78;;;5.21;100.00
9695;BME280;4690;52.422;13.486;2023-02-03T05:21:40;101175.44;;;5.33;100.00
9695;BME280;4690;52.422;13.486;2023-02-03T05:24:06;101157.66;;;5.46;100.00
9695;BME280;4690;52.422;13.486;2023-02-03T05:26:33;101158.50;;;5.46;100.00
9695;BME280;4690;52.422;13.486;2023-02-03T05:28:59;101164.25;;;5.51;100.00
9695;BME280;4690;52.422;13.486;2023-02-03T05:31:25;101162.03;;;5.55;100.00
9695;BME280;4690;52.422;13.486;2023-02-03T05:33:51;101151.72;;;5.65;100.00
9695;BME280;4690;52.422;13.486;2023-02-03T05:36:17;101155.00;;;5.60;100.00
9695;BME280;4690;52.422;13.486;2023-02-03T05:38:43;101155.66;;;5.62;100.00
9695;BME280;4690;52.422;13.486;2023-02-03T05:41:11;101157.16;;;5.80;100.00
9695;BME280;4690;52.422;13.486;2023-02-03T05:43:56;101135.47;;;5.95;100.00
9695;BME280;4690;52.422;13.486;2023-02-03T05:46:21;101146.81;;;5.98;100.00
9695;BME280;4690;52.422;13.486;2023-02-03T05:48:47;101137.16;;;5.96;100.00
9695;BME280;4690;52.422;13.486;2023-02-03T05:51:13;101128.91;;;6.04;100.00
9695;BME280;4690;52.422;13.486;2023-02-03T05:53:39;101125.72;;;6.00;100.00
9695;BME280;4690;52.422;13.486;2023-02-03T05:56:05;101107.16;;;6.04;100.00
9695;BME280;4690;52.422;13.486;2023-02-03T05:58:31;101112.50;;;6.12;100.00
9695;BME280;4690;52.422;13.486;2023-02-03T06:00:56;101106.75;;;6.22;100.00
9695;BME280;4690;52.422;13.486;2023-02-03T06:03:22;101103.91;;;6.30;100.00
9695;BME280;4690;52.422;13.486;2023-02-03T06:05:48;101101.97;;;6.24;100.00
9695;BME280;4690;52.422;13.486;2023-02-03T06:08:14;101093.88;;;6.31;100.00
9695;BME280;4690;52.422;13.486;2023-02-03T06:10:40;101085.03;;;6.43;100.00
9695;BME280;4690;52.422;13.486;2023-02-03T06:13:11;101082.88;;;6.39;100.00
9695;BME280;4690;52.422;13.486;2023-02-03T06:15:38;101067.31;;;6.33;100.00
9695;BME280;4690;52.422;13.486;2023-02-03T06:18:04;101063.25;;;6.43;100.00
9695;BME280;4690;52.422;13.486;2023-02-03T06:20:30;101060.81;;;6.48;100.00
9695;BME280;4690;52.422;13.486;2023-02-03T06:22:55;101062.03;;;6.46;100.00
9695;BME280;4690;52.422;13.486;2023-02-03T06:25:21;101053.16;;;6.59;100.00
9695;BME280;4690;52.422;13.486;2023-02-03T06:27:49;101057.34;;;6.76;100.00
9695;BME280;4690;52.422;13.486;2023-02-03T06:30:15;101046.34;;;6.69;100.00
9695;BME280;4690;52.422;13.486;2023-02-03T06:32:40;101051.28;;;6.81;100.00
9695;BME280;4690;52.422;13.486;2023-02-03T06:35:07;101050.44;;;6.80;100.00
9695;BME280;4690;52.422;13.486;2023-02-03T06:37:33;101053.19;;;7.02;100.00
9695;BME280;4690;52.422;13.486;2023-02-03T06:40:01;101063.88;;;7.03;100.00
9695;BME280;4690;52.422;13.486;2023-02-03T06:42:26;101056.91;;;7.01;100.00
9695;BME280;4690;52.422;13.486;2023-02-03T06:44:52;101048.56;;;7.02;100.00
9695;BME280;4690;52.422;13.486;2023-02-03T06:47:19;101048.44;;;7.10;100.00
9695;BME280;4690;52.422;13.486;2023-02-03T06:49:45;101048.13;;;6.99;100.00
9695;BME280;4690;52.422;13.486;2023-02-03T06:52:11;101045.53;;;6.90;100.00
9695;BME280;4690;52.422;13.486;2023-02-03T06:54:36;101034.84;;;7.17;100.00
9695;BME280;4690;52.422;13.486;2023-02-03T06:57:02;101028.56;;;7.16;100.00
9695;BME280;4690;52.422;13.486;2023-02-03T06:59:28;101025.03;;;7.23;100.00
9695;BME280;4690;52.422;13.486;2023-02-03T07:01:54;101024.56;;;7.40;100.00
9695;BME280;4690;52.422;13.486;2023-02-03T07:04:20;101014.38;;;7.28;100.00
9695;BME280;4690;52.422;13.486;2023-02-03T07:06:46;101010.06;;;7.12;100.00
9695;BME280;4690;52.422;13.486;2023-02-03T07:09:12;101007.44;;;7.25;100.00
9695;BME280;4690;52.422;13.486;2023-02-03T07:11:38;100995.59;;;7.39;100.00
9695;BME280;4690;52.422;13.486;2023-02-03T07:14:03;100997.97;;;7.49;100.00
9695;BME280;4690;52.422;13.486;2023-02-03T07:16:29;100992.00;;;7.32;100.00
9695;BME280;4690;52.422;13.486;2023-02-03T07:18:56;100979.47;;;7.45;100.00
9695;BME280;4690;52.422;13.486;2023-02-03T07:21:22;100974.22;;;7.43;100.00
9695;BME280;4690;52.422;13.486;2023-02-03T07:23:48;100970.97;;;7.26;100.00
9695;BME280;4690;52.422;13.486;2023-02-03T07:26:15;100960.31;;;7.31;100.00
9695;BME280;4690;52.422;13.486;2023-02-03T07:28:41;100971.50;;;7.43;100.00
9695;BME280;4690;52.422;13.486;2023-02-03T07:31:07;100948.41;;;7.39;100.00
9695;BME280;4690;52.422;13.486;2023-02-03T07:33:35;100952.41;;;7.43;100.00
9695;BME280;4690;52.422;13.486;2023-02-03T07:36:02;100940.09;;;7.54;100.00
9695;BME280;4690;52.422;13.486;2023-02-03T07:38:28;100924.97;;;7.51;100.00
9695;BME280;4690;52.422;13.486;2023-02-03T07:40:55;100934.53;;;7.69;100.00
9695;BME280;4690;52.422;13.486;2023-02-03T07:43:21;100920.38;;;7.52;100.00
9695;BME280;4690;52.422;13.486;2023-02-03T07:45:47;100916.38;;;7.48;100.00
9695;BME280;4690;52.422;13.486;2023-02-03T07:48:13;100903.31;;;7.43;100.00
9695;BME280;4690;52.422;13.486;2023-02-03T07:50:39;100915.72;;;7.46;100.00
9695;BME280;4690;52.422;13.486;2023-02-03T07:53:05;100904.88;;;7.59;100.00
9695;BME280;4690;52.422;13.486;2023-02-03T07:55:36;100899.66;;;7.57;100.00
9695;BME280;4690;52.422;13.486;2023-02-03T07:58:02;100901.91;;;7.54;100.00
9695;BME280;4690;52.422;13.486;2023-02-03T08:00:27;100898.75;;;7.44;100.00
9695;BME280;4690;52.422;13.486;2023-02-03T08:02:53;100891.06;;;7.74;100.00
9695;BME280;4690;52.422;13.486;2023-02-03T08:05:19;100888.41;;;7.80;100.00
9695;BME280;4690;52.422;13.486;2023-02-03T08:07:45;100886.00;;;7.57;100.00
9695;BME280;4690;52.422;13.486;2023-02-03T08:10:13;100881.41;;;7.64;100.00
9695;BME280;4690;52.422;13.486;2023-02-03T08:12:43;100872.84;;;7.74;100.00
9695;BME280;4690;52.422;13.486;2023-02-03T08:15:10;100860.22;;;7.67;100.00
9695;BME280;4690;52.422;13.486;2023-02-03T08:17:36;100850.16;;;7.74;100.00
9695;BME280;4690;52.422;13.486;2023-02-03T08:20:06;100857.28;;;7.61;100.00
9695;BME280;4690;52.422;13.486;2023-02-03T08:22:31;100854.50;;;7.48;100.00
9695;BME280;4690;52.422;13.486;2023-02-03T08:24:57;100831.25;;;7.59;100.00
9695;BME280;4690;52.422;13.486;2023-02-03T08:27:23;100827.69;;;7.65;100.00
9695;BME280;4690;52.422;13.486;2023-02-03T08:29:49;100829.34;;;7.59;100.00
9695;BME280;4690;52.422;13.486;2023-02-03T08:32:18;100832.91;;;7.60;100.00
9695;BME280;4690;52.422;13.486;2023-02-03T08:34:46;100824.34;;;7.63;100.00
9695;BME280;4690;52.422;13.486;2023-02-03T08:37:14;100816.38;;;7.68;100.00
9695;BME280;4690;52.422;13.486;2023-02-03T08:39:41;100815.16;;;7.77;100.00
9695;BME280;4690;52.422;13.486;2023-02-03T08:42:08;100821.44;;;7.91;100.00
9695;BME280;4690;52.422;13.486;2023-02-03T08:44:34;100819.13;;;7.81;100.00
9695;BME280;4690;52.422;13.486;2023-02-03T08:47:00;100818.50;;;7.79;100.00
9695;BME280;4690;52.422;13.486;2023-02-03T08:49:29;100813.88;;;7.73;100.00
9695;BME280;4690;52.422;13.486;2023-02-03T08:51:56;100803.38;;;7.77;100.00
9695;BME280;4690;52.422;13.486;2023-02-03T08:54:23;100800.88;;;7.82;100.00
9695;BME280;4690;52.422;13.486;2023-02-03T08:56:49;100795.00;;;7.78;100.00
9695;BME280;4690;52.422;13.486;2023-02-03T08:59:15;100787.00;;;7.77;100.00
9695;BME280;4690;52.422;13.486;2023-02-03T09:01:42;100784.94;;;7.99;100.00
9695;BME280;4690;52.422;13.486;2023-02-03T09:04:11;100790.41;;;7.92;100.00
9695;BME280;4690;52.422;13.486;2023-02-03T09:06:37;100791.22;;;7.79;100.00
9695;BME280;4690;52.422;13.486;2023-02-03T09:09:04;100791.44;;;7.91;100.00
9695;BME280;4690;52.422;13.486;2023-02-03T09:11:30;100784.53;;;7.89;100.00
9695;BME280;4690;52.422;13.486;2023-02-03T09:13:56;100774.66;;;8.07;100.00
9695;BME280;4690;52.422;13.486;2023-02-03T09:16:23;100771.53;;;8.17;100.00
9695;BME280;4690;52.422;13.486;2023-02-03T09:18:50;100769.22;;;8.14;100.00
9695;BME280;4690;52.422;13.486;2023-02-03T09:21:17;100775.09;;;8.18;100.00
9695;BME280;4690;52.422;13.486;2023-02-03T09:23:44;100774.84;;;8.19;100.00
9695;BME280;4690;52.422;13.486;2023-02-03T09:26:13;100766.06;;;8.17;100.00
9695;BME280;4690;52.422;13.486;2023-02-03T09:28:39;100757.25;;;7.95;100.00
9695;BME280;4690;52.422;13.486;2023-02-03T09:31:14;100753.03;;;7.86;100.00
9695;BME280;4690;52.422;13.486;2023-02-03T09:33:43;100744.00;;;8.12;100.00
9695;BME280;4690;52.422;13.486;2023-02-03T09:36:10;100757.84;;;8.24;100.00
9695;BME280;4690;52.422;13.486;2023-02-03T09:38:36;100754.09;;;8.18;100.00
9695;BME280;4690;52.422;13.486;2023-02-03T09:44:12;100729.72;;;8.37;100.00
9695;BME280;4690;52.422;13.486;2023-02-03T09:47:10;100725.94;;;8.51;100.00
9695;BME280;4690;52.422;13.486;2023-02-03T09:49:49;100723.63;;;8.41;100.00
9695;BME280;4690;52.422;13.486;2023-02-03T09:52:35;100722.16;;;8.45;100.00
9695;BME280;4690;52.422;13.486;2023-02-03T09:55:37;100715.00;;;8.24;100.00
9695;BME280;4690;52.422;13.486;2023-02-03T09:58:18;100716.69;;;8.39;100.00
9695;BME280;4690;52.422;13.486;2023-02-03T10:00:58;100706.41;;;8.41;100.00
9695;BME280;4690;52.422;13.486;2023-02-03T10:04:00;100691.50;;;8.43;100.00
9695;BME280;4690;52.422;13.486;2023-02-03T10:06:45;100690.44;;;8.44;100.00
9695;BME280;4690;52.422;13.486;2023-02-03T10:09:35;100677.00;;;8.43;100.00
9695;BME280;4690;52.422;13.486;2023-02-03T10:18:05;100649.66;;;8.56;100.00
9695;BME280;4690;52.422;13.486;2023-02-03T10:20:41;100628.25;;;8.46;100.00
9695;BME280;4690;52.422;13.486;2023-02-03T10:23:23;100613.09;;;8.57;100.00
9695;BME280;4690;52.422;13.486;2023-02-03T10:25:53;100620.50;;;8.43;100.00
9695;BME280;4690;52.422;13.486;2023-02-03T10:28:36;100636.41;;;8.53;100.00
9695;BME280;4690;52.422;13.486;2023-02-03T10:31:16;100611.00;;;8.52;100.00
9695;BME280;4690;52.422;13.486;2023-02-03T10:33:42;100612.22;;;8.63;100.00
9695;BME280;4690;52.422;13.486;2023-02-03T10:36:18;100627.88;;;8.81;100.00
9695;BME280;4690;52.422;13.486;2023-02-03T10:41:37;100636.75;;;8.77;100.00
9695;BME280;4690;52.422;13.486;2023-02-03T10:44:09;100634.81;;;8.84;100.00
9695;BME280;4690;52.422;13.486;2023-02-03T10:46:40;100628.16;;;8.66;100.00
9695;BME280;4690;52.422;13.486;2023-02-03T10:49:11;100633.34;;;8.81;100.00
9695;BME280;4690;52.422;13.486;2023-02-03T10:51:47;100649.28;;;8.91;100.00
9695;BME280;4690;52.422;13.486;2023-02-03T10:54:35;100675.34;;;8.93;100.00
9695;BME280;4690;52.422;13.486;2023-02-03T10:57:11;100729.53;;;9.03;100.00
9695;BME280;4690;52.422;13.486;2023-02-03T10:59:47;100745.72;;;9.05;100.00
9695;BME280;4690;52.422;13.486;2023-02-03T11:02:29;100739.59;;;8.44;95.11
9695;BME280;4690;52.422;13.486;2023-02-03T11:05:09;100726.38;;;8.01;95.41
9695;BME280;4690;52.422;13.486;2023-02-03T11:07:35;100711.06;;;7.80;96.60
9695;BME280;4690;52.422;13.486;2023-02-03T11:10:01;100712.97;;;8.00;97.72
9695;BME280;4690;52.422;13.486;2023-02-03T11:12:27;100700.56;;;7.91;97.13
9695;BME280;4690;52.422;13.486;2023-02-03T11:14:53;100712.31;;;8.11;97.48
9695;BME280;4690;52.422;13.486;2023-02-03T11:17:22;100714.81;;;8.13;97.23
9695;BME280;4690;52.422;13.486;2023-02-03T11:19:52;100704.53;;;8.15;96.71
9695;BME280;4690;52.422;13.486;2023-02-03T11:22:33;100708.97;;;8.09;96.46
9695;BME280;4690;52.422;13.486;2023-02-03T11:25:04;100704.97;;;8.12;95.94
9695;BME280;4690;52.422;13.486;2023-02-03T11:27:39;100708.09;;;8.02;95.32
9695;BME280;4690;52.422;13.486;2023-02-03T11:30:37;100718.81;;;8.17;96.45
9695;BME280;4690;52.422;13.486;2023-02-03T11:33:23;100695.69;;;8.32;94.58
9695;BME280;4690;52.422;13.486;2023-02-03T11:35:58;100701.41;;;8.11;94.26
9695;BME280;4690;52.422;13.486;2023-02-03T11:38:33;100699.69;;;8.37;95.35
9695;BME280;4690;52.422;13.486;2023-02-03T11:41:01;100701.78;;;8.35;94.43
9695;BME280;4690;52.422;13.486;2023-02-03T11:43:29;100718.56;;;8.38;94.36
9695;BME280;4690;52.422;13.486;2023-02-03T11:46:04;100713.75;;;8.34;93.27
9695;BME280;4690;52.422;13.486;2023-02-03T11:54:08;100728.06;;;8.22;91.63
9695;BME280;4690;52.422;13.486;2023-02-03T12:05:51;100723.22;;;9.73;87.74
9695;BME280;4690;52.422;13.486;2023-02-03T12:11:25;100712.38;;;9.59;85.17
9695;BME280;4690;52.422;13.486;2023-02-03T12:34:39;100722.22;;;10.17;79.60
9695;BME280;4690;52.422;13.486;2023-02-03T12:37:16;100717.25;;;10.07;80.55
9695;BME280;4690;52.422;13.486;2023-02-03T12:39:51;100703.56;;;10.07;79.19
9695;BME280;4690;52.422;13.486;2023-02-03T12:42:21;100715.84;;;10.23;79.30
9695;BME280;4690;52.422;13.486;2023-02-03T12:45:03;100707.84;;;10.47;80.46
9695;BME280;4690;52.422;13.486;2023-02-03T12:48:06;100710.19;;;10.18;75.97
9695;BME280;4690;52.422;13.486;2023-02-03T12:50:48;100733.31;;;10.29;73.28
9695;BME280;4690;52.422;13.486;2023-02-03T12:53:36;100715.41;;;9.76;71.54
9695;BME280;4690;52.422;13.486;2023-02-03T12:56:11;100703.44;;;9.71;71.54
9695;BME280;4690;52.422;13.486;2023-02-03T12:59:01;100713.28;;;9.78;72.26
9695;BME280;4690;52.422;13.486;2023-02-03T13:01:50;100715.22;;;9.46;70.53
9695;BME280;4690;52.422;13.486;2023-02-03T13:04:46;100737.94;;;9.47;72.49
9695;BME280;4690;52.422;13.486;2023-02-03T13:07:39;100753.13;;;9.36;74.74
9695;BME280;4690;52.422;13.486;2023-02-03T13:10:24;100790.53;;;8.97;75.89
9695;BME280;4690;52.422;13.486;2023-02-03T13:12:57;100830.72;;;8.77;79.95
9695;BME280;4690;52.422;13.486;2023-02-03T13:15:41;100840.84;;;8.56;83.93
9695;BME280;4690;52.422;13.486;2023-02-03T13:18:20;100814.34;;;8.30;84.78
9695;BME280;4690;52.422;13.486;2023-02-03T13:20:52;100813.94;;;8.20;86.66
9695;BME280;4690;52.422;13.486;2023-02-03T13:23:19;100835.13;;;7.98;86.13
9695;BME280;4690;52.422;13.486;2023-02-03T13:28:57;100853.06;;;7.59;89.06
9695;BME280;4690;52.422;13.486;2023-02-03T13:41:39;100824.34;;;6.73;91.73
9695;BME280;4690;52.422;13.486;2023-02-03T13:44:14;100825.69;;;6.84;92.19
9695;BME280;4690;52.422;13.486;2023-02-03T13:46:41;100819.03;;;6.93;92.64
9695;BME280;4690;52.422;13.486;2023-02-03T13:49:08;100817.78;;;6.96;90.69
9695;BME280;4690;52.422;13.486;2023-02-03T13:51:44;100824.50;;;7.00;90.98
9695;BME280;4690;52.422;13.486;2023-02-03T13:54:25;100819.09;;;7.07;89.36
9695;BME280;4690;52.422;13.486;2023-02-03T13:56:59;100813.09;;;7.25;90.06
9695;BME280;4690;52.422;13.486;2023-02-03T13:59:42;100828.06;;;7.49;88.74
9695;BME280;4690;52.422;13.486;2023-02-03T14:07:31;100820.63;;;7.91;86.55
9695;BME280;4690;52.422;13.486;2023-02-03T14:12:55;100815.78;;;7.86;86.21
9695;BME280;4690;52.422;13.486;2023-02-03T14:15:30;100808.63;;;7.85;84.54
9695;BME280;4690;52.422;13.486;2023-02-03T14:18:30;100805.72;;;8.06;86.12
9695;BME280;4690;52.422;13.486;2023-02-03T14:21:14;100810.78;;;8.23;85.48
9695;BME280;4690;52.422;13.486;2023-02-03T14:23:49;100812.66;;;8.36;84.70
9695;BME280;4690;52.422;13.486;2023-02-03T14:26:31;100811.81;;;8.22;84.15
9695;BME280;4690;52.422;13.486;2023-02-03T14:28:59;100814.75;;;8.27;84.72
9695;BME280;4690;52.422;13.486;2023-02-03T14:31:26;100819.19;;;8.28;82.71
9695;BME280;4690;52.422;13.486;2023-02-03T14:34:04;100827.16;;;8.36;83.25
9695;BME280;4690;52.422;13.486;2023-02-03T14:36:38;100823.16;;;8.12;82.88
9695;BME280;4690;52.422;13.486;2023-02-03T14:42:27;100825.91;;;8.39;82.40
9695;BME280;4690;52.422;13.486;2023-02-03T14:45:13;100827.38;;;8.41;82.51
9695;BME280;4690;52.422;13.486;2023-02-03T14:47:47;100836.84;;;8.52;83.07
9695;BME280;4690;52.422;13.486;2023-02-03T14:56:10;100846.72;;;8.46;82.57
9695;BME280;4690;52.422;13.486;2023-02-03T14:58:54;100824.88;;;8.40;80.54
9695;BME280;4690;52.422;13.486;2023-02-03T15:06:50;100841.66;;;8.30;81.03
9695;BME280;4690;52.422;13.486;2023-02-03T15:09:35;100842.28;;;8.12;80.19
9695;BME280;4690;52.422;13.486;2023-02-03T15:12:25;100850.47;;;8.25;82.18
9695;BME280;4690;52.422;13.486;2023-02-03T15:14:52;100859.03;;;8.02;80.62
9695;BME280;4690;52.422;13.486;2023-02-03T15:17:24;100855.47;;;8.02;78.89
9695;BME280;4690;52.422;13.486;2023-02-03T15:19:51;100864.31;;;8.11;78.24
9695;BME280;4690;52.422;13.486;2023-02-03T15:22:27;100862.03;;;8.14;76.26
9695;BME280;4690;52.422;13.486;2023-02-03T15:25:01;100856.72;;;7.99;75.66
9695;BME280;4690;52.422;13.486;2023-02-03T15:27:31;100887.56;;;7.86;76.88
9695;BME280;4690;52.422;13.486;2023-02-03T15:29:57;100883.56;;;7.82;76.10